Flight Track Log - Related Links

Times and Time Zones

All times are in EST time to prevent confusion due to time zone crossing. See the JBU82 flight status page for this flight to view local times or setup timezone preferences in your user account.

Time Position Orientation Groundspeed Altitude Reporting Facility
EST Latitude Longitude Course Direction KTS MPH feet Rate Location/Type
Tue 00:30:49 47.4333 -122.1494 233° Southwest  Level FlightAware Approximate
Tue 00:32:05 47.3503 -122.3106 140° Southeast 235 270 3,400  Level Seattle Center
Tue 00:33:06 47.3036 -122.2533 74° East 260 299 6,500 2,705 Climbing Seattle Center
Tue 00:34:07 47.3247 -122.1453 70° East 283 326 8,900 1,240 Climbing Seattle Center
Tue 00:35:07 47.3508 -122.0383 70° East 283 326 9,000 893 Climbing Seattle Center
Tue 00:36:08 47.3783 -121.9267 84° East 293 337 10,700 1,328 Climbing Seattle Center
Tue 00:37:09 47.3875 -121.7856 88° East 364 419 11,700 1,869 Climbing Seattle Center
Tue 00:38:10 47.3917 -121.6056 88° East 371 427 14,500 2,331 Climbing Seattle Center
Tue 00:39:10 47.3944 -121.4489 90° East 385 443 16,400 1,835 Climbing Seattle Center
Tue 00:40:11 47.3953 -121.2881 89° East 393 452 18,200 1,770 Climbing Seattle Center
Tue 00:41:12 47.3969 -121.1244 88° East 401 461 20,000 1,672 Climbing Seattle Center
Tue 00:42:13 47.4000 -120.9594 89° East 405 466 21,600 1,525 Climbing Seattle Center
Tue 00:43:14 47.4019 -120.7906 89° East 411 473 23,100 1,339 Climbing Seattle Center
Tue 00:44:14 47.4033 -120.6211 89° East 414 476 24,300 1,289 Climbing Seattle Center
Tue 00:45:15 47.4053 -120.4461 89° East 424 488 25,700 1,279 Climbing Seattle Center
Tue 00:46:16 47.4064 -120.2700 90° East 429 494 26,900 1,082 Climbing Seattle Center
Tue 00:47:17 47.4069 -120.0936 89° East 430 495 27,900 992 Climbing Seattle Center
Tue 00:48:17 47.4089 -119.9136 90° East 437 503 28,900 992 Climbing Seattle Center
Tue 00:49:18 47.4083 -119.7322 90° East 442 509 29,900 1,131 Climbing Seattle Center
Tue 00:50:19 47.4092 -119.5142 91° East 443 510 31,200 1,140 Climbing Seattle Center
Tue 00:51:19 47.4078 -119.3328 90° East 444 511 32,200 893 Climbing Seattle Center
Tue 00:52:20 47.4083 -119.1544 90° East 439 505 33,000 393 Climbing Seattle Center
Tue 00:53:21 47.4075 -118.9722 91° East 443 510 33,000 49 Level Seattle Center
Tue 00:54:22 47.4061 -118.7889 91° East 447 514 33,100 843 Climbing Seattle Center
Tue 00:55:22 47.4036 -118.6053 90° East 449 517 34,700 942 Climbing Seattle Center
Tue 00:56:23 47.4033 -118.4306 91° East 434 499 35,000 148 Climbing Seattle Center
Tue 00:57:24 47.4011 -118.2553 91° East 429 494 35,000  Level Seattle Center
Tue 00:58:24 47.3986 -118.0792 90° East 431 496 35,000  Level Seattle Center
Tue 00:59:25 47.3975 -117.9053 91° East 428 493 35,000  Level Seattle Center
Tue 01:00:26 47.3958 -117.7322 91° East 427 491 35,000  Level Seattle Center
Tue 01:01:26 47.3933 -117.5578 91° East 427 491 35,000  Level Seattle Center
Tue 01:02:27 47.3906 -117.3847 92° East 427 491 35,000  Level Seattle Center
Tue 01:03:28 47.3872 -117.2119 91° East 427 491 35,000  Level Seattle Center
Tue 01:04:28 47.3836 -117.0067 92° East 427 491 35,000  Level Seattle Center
Tue 01:05:29 47.3803 -116.8353 92° East 426 490 35,000  Level Seattle Center
Tue 01:06:30 47.3753 -116.6628 92° East 426 490 35,000  Level Seattle Center
Tue 01:07:30 47.3714 -116.4903 92° East 425 489 35,000  Level Seattle Center
Tue 01:08:31 47.3667 -116.3186 92° East 423 487 35,000  Level Seattle Center
Tue 01:09:32 47.3617 -116.1458 93° East 423 487 35,000  Level Seattle Center
Tue 01:10:32 47.3564 -115.9731 93° East 424 488 35,000  Level Seattle Center
Tue 01:11:33 47.3511 -115.7994 93° East 424 488 35,000  Level Seattle Center
Tue 01:12:33 47.3450 -115.6108 93° East 427 491 35,000  Level Seattle Center
Tue 01:13:34 47.3383 -115.4361 93° East 429 494 35,000  Level Seattle Center
Tue 01:14:35 47.3328 -115.2628 93° East 427 491 35,000  Level Seattle Center
Tue 01:15:35 47.3261 -115.0939 93° East 420 483 35,000  Level Seattle Center
Tue 01:16:36 47.3203 -114.9247 94° East 417 480 35,000  Level Seattle Center
Tue 01:17:36 47.3128 -114.7564 93° East 416 479 35,000 -50 Level Seattle Center
Tue 01:18:37 47.3067 -114.5867 94° East 417 480 34,900  Descending Seattle Center
Tue 01:19:37 47.2983 -114.4133 94° East 423 487 35,000 50 Climbing Seattle Center
Tue 01:20:38 47.2906 -114.2372 94° East 429 494 35,000  Level Seattle Center
Tue 01:21:38 47.2822 -114.0597 94° East 435 501 35,000  Level Seattle Center
Tue 01:22:39 47.2744 -113.8817 94° East 438 504 35,000  Level Seattle Center
Tue 01:23:39 47.2631 -113.6692 94° East 437 503 35,000  Level Seattle Center
Tue 01:25:05 47.2497 -113.4200 94° East 439 505 35,000  Level Salt Lake Center
Tue 01:26:06 47.2400 -113.2403 95° East 442 509 35,000  Level Salt Lake Center
Tue 01:27:07 47.2300 -113.0589 95° East 445 512 35,000 -49 Level Salt Lake Center
Tue 01:28:08 47.2186 -112.8639 94° East 444 511 34,900 -50 Descending Salt Lake Center
Tue 01:29:08 47.2097 -112.6831 95° East 445 512 34,900  Level Salt Lake Center
Tue 01:30:09 47.1983 -112.5031 95° East 444 511 34,900 49 Level Salt Lake Center
Tue 01:31:10 47.1878 -112.3214 95° East 447 514 35,000 49 Climbing Salt Lake Center
Tue 01:32:11 47.1758 -112.1394 95° East 449 517 35,000  Level Salt Lake Center
Tue 01:33:12 47.1642 -111.9575 96° East 450 518 35,000  Level Salt Lake Center
Tue 01:34:13 47.1514 -111.7761 95° East 451 519 35,000  Level Salt Lake Center
Tue 01:35:13 47.1394 -111.5936 96° East 452 520 35,000 -50 Level Salt Lake Center
Tue 01:36:14 47.1264 -111.4114 96° East 453 521 34,900  Descending Salt Lake Center
Tue 01:37:15 47.1136 -111.2294 96° East 452 520 35,000 49 Climbing Salt Lake Center
Tue 01:38:16 47.0997 -111.0461 96° East 455 524 35,000  Level Salt Lake Center
Tue 01:39:17 47.0828 -110.8267 96° East 456 525 35,000  Level Salt Lake Center
Tue 01:40:17 47.0686 -110.6400 96° East 460 529 35,000  Level Salt Lake Center
Tue 01:41:18 47.0544 -110.4528 97° East 463 533 35,000  Level Salt Lake Center
Tue 01:42:19 47.0394 -110.2658 97° East 464 534 35,000  Level Salt Lake Center
Tue 01:43:19 47.0244 -110.0786 96° East 465 535 35,000  Level Salt Lake Center
Tue 01:44:20 47.0097 -109.8883 97° East 469 540 35,000  Level Salt Lake Center
Tue 01:45:21 46.9942 -109.6994 97° East 470 541 35,000  Level Salt Lake Center
Tue 01:46:21 46.9778 -109.5117 97° East 469 540 35,000 -50 Level Salt Lake Center
Tue 01:47:22 46.9617 -109.3239 98° East 467 537 34,900  Descending Salt Lake Center
Tue 01:48:23 46.9433 -109.1369 98° East 468 539 35,000 99 Climbing Salt Lake Center
Tue 01:49:23 46.9219 -108.9286 98° East 468 539 35,100  Climbing Salt Lake Center
Tue 01:50:24 46.9050 -108.7481 98° East 469 540 35,000 -50 Descending Salt Lake Center
Tue 01:51:24 46.8883 -108.5669 98° East 470 541 35,000  Level Salt Lake Center
Tue 01:52:25 46.8675 -108.3544 98° East 471 542 35,000  Level Salt Lake Center
Tue 01:53:25 46.8497 -108.1711 98° East 474 545 35,000  Level Salt Lake Center
Tue 01:54:26 46.8314 -107.9886 98° East 474 545 35,000  Level Salt Lake Center
Tue 01:55:26 46.8103 -107.7769 99° East 473 544 35,000  Level Salt Lake Center
Tue 01:56:27 46.7906 -107.5956 99° East 473 544 35,000  Level Salt Lake Center
Tue 01:57:27 46.7708 -107.4117 99° East 476 548 35,000  Level Salt Lake Center
Tue 01:58:28 46.7486 -107.2000 99° East 474 545 35,000  Level Salt Lake Center
Tue 01:59:28 46.7283 -107.0175 99° East 475 547 35,000  Level Salt Lake Center
Tue 02:00:29 46.7086 -106.8342 100° East 477 549 35,000  Level Salt Lake Center
Tue 02:01:29 46.6869 -106.6506 100° East 479 551 35,000  Level Salt Lake Center
Tue 02:02:30 46.6617 -106.4339 99° East 482 555 35,000  Level Salt Lake Center
Tue 02:03:30 46.6411 -106.2489 100° East 483 556 35,000  Level Salt Lake Center
Tue 02:04:31 46.6189 -106.0647 100° East 483 556 35,000  Level Salt Lake Center
Tue 02:05:31 46.5928 -105.8489 100° East 484 557 35,000  Level Salt Lake Center
Tue 02:06:32 46.5700 -105.6644 100° East 484 557 35,000  Level Salt Lake Center
Tue 02:07:32 46.5481 -105.4800 101° East 484 557 35,000  Level Salt Lake Center
Tue 02:08:33 46.5239 -105.2942 100° East 486 559 35,000  Level Salt Lake Center
Tue 02:09:33 46.4964 -105.0767 101° East 489 563 35,000  Level Salt Lake Center
Tue 02:10:33 46.4717 -104.8869 101° East 493 567 35,000  Level Salt Lake Center
Tue 02:11:34 46.4450 -104.6911 101° East 496 571 35,000  Level Salt Lake Center
Tue 02:12:34 46.4189 -104.4939 101° East 499 574 35,000  Level Salt Lake Center
Tue 02:13:35 46.3917 -104.2953 101° East 502 578 35,000  Level Salt Lake Center
Tue 02:14:35 46.3647 -104.0961 102° East 505 581 35,000  Level Salt Lake Center
Tue 02:15:35 46.3358 -103.8975 101° East 506 582 35,000  Level Salt Lake Center
Tue 02:16:36 46.3078 -103.6978 102° East 508 585 35,000  Level Salt Lake Center
Tue 02:17:36 46.2794 -103.5003 102° East 508 585 35,000  Level Salt Lake Center
Tue 02:18:36 46.2506 -103.3044 102° East 505 581 35,000  Level Salt Lake Center
Tue 02:19:37 46.2219 -103.1078 102° East 503 579 35,000  Level Salt Lake Center
Tue 02:20:37 46.1928 -102.9125 103° East 502 578 35,000  Level Salt Lake Center
Tue 02:21:32 46.1597 -102.7081 101° East 502 578 35,000  Level Minneapolis Center
Tue 02:22:32 46.1319 -102.5078 102° East 502 578 35,000  Level Minneapolis Center
Tue 02:23:32 46.1044 -102.3292 101° East 502 578 35,000  Level Minneapolis Center
Tue 02:24:32 46.0764 -102.1264 102° East 502 578 35,000  Level Minneapolis Center
Tue 02:25:32 46.0469 -101.9328 104° East 502 578 35,000  Level Minneapolis Center
Tue 02:26:32 46.0117 -101.7353 102° East 502 578 35,000  Level Minneapolis Center
Tue 02:27:32 45.9822 -101.5361 104° East 508 585 35,000  Level Minneapolis Center
Tue 02:28:32 45.9481 -101.3367 102° East 508 585 35,000  Level Minneapolis Center
Tue 02:29:32 45.9164 -101.1317 104° East 508 585 35,000  Level Minneapolis Center
Tue 02:30:32 45.8814 -100.9356 102° East 508 585 35,000  Level Minneapolis Center
Tue 02:31:32 45.8508 -100.7311 97° East 513 590 35,000  Level Minneapolis Center
Tue 02:32:32 45.8331 -100.5197 96° East 519 597 35,000  Level Minneapolis Center
Tue 02:33:32 45.8186 -100.3119 96° East 519 597 35,000  Level Minneapolis Center
Tue 02:34:32 45.8022 -100.0981 95° East 531 611 35,000  Level Minneapolis Center
Tue 02:35:32 45.7894 -99.8878 97° East 531 611 35,000  Level Minneapolis Center
Tue 02:36:32 45.7722 -99.6742 96° East 536 617 35,000  Level Minneapolis Center
Tue 02:37:32 45.7564 -99.4639 97° East 536 617 35,000  Level Minneapolis Center
Tue 02:38:32 45.7383 -99.2503 96° East 536 617 35,000  Level Minneapolis Center
Tue 02:39:32 45.7206 -99.0222 98° East 536 617 35,000  Level Minneapolis Center
Tue 02:40:32 45.7000 -98.8031 97° East 536 617 35,000  Level Minneapolis Center
Tue 02:41:32 45.6828 -98.5900 98° East 541 623 35,000  Level Minneapolis Center
Tue 02:42:32 45.6628 -98.3800 96° East 541 623 35,000  Level Minneapolis Center
Tue 02:43:32 45.6469 -98.1675 99° East 541 623 35,000  Level Minneapolis Center
Tue 02:44:32 45.6256 -97.9786 98° East 536 617 35,000  Level Minneapolis Center
Tue 02:45:32 45.6047 -97.7631 97° East 541 623 35,000  Level Minneapolis Center
Tue 02:46:32 45.5856 -97.5481 98° East 546 628 35,000  Level Minneapolis Center
Tue 02:47:32 45.5642 -97.3297 98° East 546 628 35,000  Level Minneapolis Center
Tue 02:48:32 45.5419 -97.1178 97° East 546 628 35,000  Level Minneapolis Center
Tue 02:49:32 45.5203 -96.8850 98° East 546 628 35,000  Level Minneapolis Center
Tue 02:50:32 45.4994 -96.6675 99° East 546 628 35,000  Level Minneapolis Center
Tue 02:51:32 45.4764 -96.4531 99° East 546 628 35,000  Level Minneapolis Center
Tue 02:52:32 45.4525 -96.2386 98° East 546 628 35,000  Level Minneapolis Center
Tue 02:53:32 45.4306 -96.0275 98° East 541 623 35,000  Level Minneapolis Center
Tue 02:54:32 45.4100 -95.8311 100° East 546 628 35,000  Level Minneapolis Center
Tue 02:55:32 45.3850 -95.6203 99° East 546 628 35,000  Level Minneapolis Center
Tue 02:56:32 45.3619 -95.4036 101° East 546 628 35,000  Level Minneapolis Center
Tue 02:57:32 45.3342 -95.1931 99° East 546 628 35,000  Level Minneapolis Center
Tue 02:58:32 45.3103 -94.9767 100° East 546 628 35,000  Level Minneapolis Center
Tue 02:59:32 45.2819 -94.7458 100° East 546 628 35,000  Level Minneapolis Center
Tue 03:00:32 45.2550 -94.5358 100° East 546 628 35,000  Level Minneapolis Center
Tue 03:01:32 45.2297 -94.3231 100° East 546 628 35,000  Level Minneapolis Center
Tue 03:02:32 45.2042 -94.1106 101° East 546 628 35,000  Level Minneapolis Center
Tue 03:03:32 45.1761 -93.8983 100° East 546 628 35,000  Level Minneapolis Center
Tue 03:04:32 45.1517 -93.7097 101° East 546 628 35,000  Level Minneapolis Center
Tue 03:05:32 45.1228 -93.4947 100° East 546 628 35,000  Level Minneapolis Center
Tue 03:06:32 45.0956 -93.2831 101° East 546 628 35,000  Level Minneapolis Center
Tue 03:07:32 45.0658 -93.0686 100° East 546 628 35,000  Level Minneapolis Center
Tue 03:08:32 45.0358 -92.8369 101° East 546 628 35,000  Level Minneapolis Center
Tue 03:09:32 45.0053 -92.6258 101° East 546 628 35,000  Level Minneapolis Center
Tue 03:10:32 44.9764 -92.4150 102° East 546 628 35,000  Level Minneapolis Center
Tue 03:11:32 44.9453 -92.2014 101° East 546 628 35,000  Level Minneapolis Center
Tue 03:12:32 44.9156 -91.9939 102° East 546 628 35,000  Level Minneapolis Center
Tue 03:13:32 44.8836 -91.7808 102° East 546 628 35,000  Level Minneapolis Center
Tue 03:14:32 44.8556 -91.5942 102° East 546 628 35,000  Level Minneapolis Center
Tue 03:15:32 44.8228 -91.3789 103° East 546 628 35,000  Level Minneapolis Center
Tue 03:16:32 44.7875 -91.1694 101° East 546 628 35,000  Level Minneapolis Center
Tue 03:17:32 44.7581 -90.9600 105° East 546 628 35,000  Level Minneapolis Center
Tue 03:18:32 44.7181 -90.7572 102° East 541 623 35,000  Level Minneapolis Center
Tue 03:19:32 44.6856 -90.5456 102° East 547 629 35,000  Level Minneapolis Center
Tue 03:20:32 44.6531 -90.3400 103° East 547 629 35,000  Level Minneapolis Center
Tue 03:21:32 44.6181 -90.1319 103° East 547 629 35,000  Level Minneapolis Center
Tue 03:22:32 44.5825 -89.9211 103° East 547 629 35,000  Level Minneapolis Center
Tue 03:23:32 44.5486 -89.7133 103° East 547 629 35,000  Level Minneapolis Center
Tue 03:24:32 44.5117 -89.4858 104° East 547 629 35,000  Level Minneapolis Center
Tue 03:25:32 44.4750 -89.2758 104° East 547 629 35,000  Level Minneapolis Center
Tue 03:26:32 44.4378 -89.0692 103° East 547 629 35,000  Level Minneapolis Center
Tue 03:27:32 44.4022 -88.8567 104° East 547 629 35,000  Level Minneapolis Center
Tue 03:28:32 44.3644 -88.6475 104° East 547 629 35,000  Level Minneapolis Center
Tue 03:29:32 44.3283 -88.4444 104° East 547 629 35,000  Level Minneapolis Center
Tue 03:30:32 44.2894 -88.2300 103° East 557 641 35,000  Level Minneapolis Center
Tue 03:31:32 44.2547 -88.0244 105° East 557 641 35,000  Level Minneapolis Center
Tue 03:32:32 44.2153 -87.8192 105° East 557 641 35,000  Level Minneapolis Center
Tue 03:33:32 44.1756 -87.6117 104° East 557 641 35,000  Level Minneapolis Center
Tue 03:34:32 44.1372 -87.4011 106° East 557 641 35,000  Level Minneapolis Center
Tue 03:35:32 44.0997 -87.2142 106° East 557 641 35,000  Level Minneapolis Center
Tue 03:36:32 44.0592 -87.0131 105° East 557 641 35,000  Level Minneapolis Center
Tue 03:37:32 44.0178 -86.8039 105° East 557 641 35,000  Level Minneapolis Center
Tue 03:38:32 43.9781 -86.5975 106° East 557 641 35,000  Level Minneapolis Center
Tue 03:39:32 43.9361 -86.3917 106° East 557 641 35,000  Level Minneapolis Center
Tue 03:40:32 43.8900 -86.1636 106° East 557 641 35,000  Level Minneapolis Center
Tue 03:41:32 43.8475 -85.9611 106° East 557 641 35,000  Level Minneapolis Center
Tue 03:43:27 43.7714 -85.5858 107° East 570 656 35,000  Level Cleveland Center
Tue 03:44:27 43.7258 -85.3808 107° East 565 650 35,000  Level Cleveland Center
Tue 03:45:27 43.6767 -85.1531 107° East 560 644 35,000  Level Cleveland Center
Tue 03:46:27 43.6322 -84.9547 106° East 560 644 35,000  Level Cleveland Center
Tue 03:47:27 43.5897 -84.7481 107° East 555 639 35,000  Level Cleveland Center
Tue 03:48:27 43.5447 -84.5444 108° East 555 639 35,000  Level Cleveland Center
Tue 03:49:27 43.4975 -84.3408 108° East 555 639 35,000  Level Cleveland Center
Tue 03:50:27 43.4553 -84.1581 108° East 555 639 35,000  Level Cleveland Center
Tue 03:51:27 43.4072 -83.9553 108° East 555 639 35,000  Level Cleveland Center
Tue 03:52:27 43.3569 -83.7383 108° East 555 639 35,000  Level Cleveland Center
Tue 03:53:27 43.3103 -83.5389 107° East 549 632 35,000  Level Cleveland Center
Tue 03:54:27 43.2653 -83.3372 108° East 553 636 35,000  Level Cleveland Center
Tue 03:55:27 43.2178 -83.1328 108° East 553 636 35,000  Level Cleveland Center
Tue 03:56:27 43.1719 -82.9344 108° East 547 629 35,000  Level Cleveland Center
Tue 03:57:27 43.1236 -82.7336 107° East 553 636 35,000 200 Level Cleveland Center
Tue 03:58:27 43.0831 -82.5531 107° East 553 636 35,400 900 Climbing Cleveland Center
Tue 03:59:27 43.0383 -82.3556 108° East 548 631 36,800 800 Climbing Cleveland Center
Tue 04:00:27 42.9914 -82.1583 107° East 541 623 37,000 100 Climbing Cleveland Center
Tue 04:01:27 42.9439 -81.9531 110° East 553 636 37,000  Level Cleveland Center
Tue 04:02:27 42.8858 -81.7364 108° East 559 643 37,000  Level Cleveland Center
Tue 04:03:27 42.8378 -81.5317 109° East 565 650 37,000  Level Cleveland Center
Tue 04:04:27 42.7869 -81.3300 108° East 570 656 37,000  Level Cleveland Center
Tue 04:05:27 42.7383 -81.1258 109° East 565 650 37,000  Level Cleveland Center
Tue 04:06:27 42.6869 -80.9250 109° East 560 644 37,000  Level Cleveland Center
Tue 04:07:27 42.6414 -80.7442 109° East 565 650 37,000  Level Cleveland Center
Tue 04:08:27 42.5914 -80.5436 109° East 560 644 37,000  Level Cleveland Center
Tue 04:09:27 42.5414 -80.3436 109° East 560 644 37,000  Level Cleveland Center
Tue 04:10:27 42.4886 -80.1411 110° East 565 650 37,000  Level Cleveland Center
Tue 04:11:27 42.4375 -79.9475 110° East 565 650 37,000  Level Cleveland Center
Tue 04:12:27 42.3842 -79.7483 109° East 565 650 37,000  Level Cleveland Center
Tue 04:13:27 42.3347 -79.5494 110° East 565 650 37,000  Level Cleveland Center
Tue 04:14:27 42.2806 -79.3539 110° East 565 650 37,000  Level Cleveland Center
Tue 04:15:27 42.2283 -79.1614 111° Southeast 559 643 37,000  Level Cleveland Center
Tue 04:16:27 42.1739 -78.9667 110° East 559 643 37,000  Level Cleveland Center
Tue 04:17:27 42.1208 -78.7692 111° Southeast 554 638 37,000  Level Cleveland Center
Tue 04:18:27 42.0675 -78.5778 110° East 549 632 37,000  Level Cleveland Center
Tue 04:19:27 42.0139 -78.3808 111° Southeast 549 632 37,000  Level Cleveland Center
Tue 04:21:31 41.8972 -77.9658 111° Southeast 571 657 37,000  Level New York Center
Tue 04:22:28 41.8419 -77.7758 108° East 557 641 37,000  Level New York Center
Tue 04:23:28 41.7928 -77.5789 110° East 552 635 37,000  Level New York Center
Tue 04:24:28 41.7392 -77.3842 110° East 552 635 37,000  Level New York Center
Tue 04:25:31 41.6875 -77.1903 110° East 557 641 37,000  Level New York Center
Tue 04:26:30 41.6353 -76.9936 110° East 562 647 37,000  Level New York Center
Tue 04:27:29 41.5828 -76.8028 110° East 557 641 37,000  Level New York Center
Tue 04:28:28 41.5353 -76.6294 110° East 552 635 37,000 -942 Level New York Center
Tue 04:29:30 41.4767 -76.4167 110° East 552 635 35,100 -1,983 Descending New York Center
Tue 04:30:29 41.4233 -76.2242 110° East 552 635 33,000 -2,050 Descending New York Center
Tue 04:31:30 41.3694 -76.0317 111° Southeast 552 635 31,000 -2,017 Descending New York Center
Tue 04:32:28 41.3189 -75.8536 111° Southeast 562 647 29,000 -2,250 Descending New York Center
Tue 04:33:30 41.2589 -75.6478 114° Southeast 562 647 26,500 -2,213 Descending New York Center
Tue 04:34:30 41.1975 -75.4669 113° Southeast 549 632 24,500 -1,750 Descending New York Center
Tue 04:35:30 41.1472 -75.3117 114° Southeast 512 589 23,000 -763 Descending New York Center
Tue 04:36:28 41.0892 -75.1400 115° Southeast 507 583 23,000  Level New York Center
Tue 04:37:28 41.0306 -74.9711 109° East 507 583 23,000 -98 Level New York Center
Tue 04:38:30 40.9847 -74.7978 97° East 512 589 22,800 -700 Descending New York Center
Tue 04:39:28 40.9678 -74.6128 99° East 491 565 21,600 -1,220 Descending New York Center
Tue 04:40:28 40.9464 -74.4386 108° East 491 565 20,400 -1,333 Descending New York Center
Tue 04:41:07 40.9167 -74.3167 105° East 478 550 19,400 -848 Descending New York TRACON
Tue 04:42:07 40.8833 -74.1500 110° East 475 547 19,000 -810 Descending New York TRACON
Tue 04:43:13 40.8333 -73.9667 114° Southeast 462 532 17,700 -2,762 Descending New York TRACON
Tue 04:44:13 40.7833 -73.8167 108° East 444 511 13,200 -3,550 Descending New York TRACON
Tue 04:45:13 40.7500 -73.6833 108° East 400 460 10,600 -2,500 Descending New York TRACON
Tue 04:46:13 40.7167 -73.5500 123° Southeast 345 397 8,200 -2,389 Descending New York TRACON
Tue 04:47:01 40.6833 -73.4833 171° South 326 375 6,300 -2,222 Descending New York TRACON
Tue 04:48:01 40.6000 -73.4667 237° Southwest 287 330 4,200 -1,650 Descending New York TRACON
Tue 04:49:01 40.5667 -73.5333 270° West 235 270 3,000 -700 Descending New York TRACON
Tue 04:50:01 40.5667 -73.6000 311° West 193 222 2,800 -444 Descending New York TRACON
Tue 04:50:49 40.6000 -73.6500 303° West 180 207 2,200 -722 Descending New York TRACON
Tue 04:51:49 40.6167 -73.6833 294° West 130 150 1,500 -800 Descending New York TRACON
Tue 04:52:49 40.6333 -73.7333 294° West 120 138 600 -900 Descending New York TRACON

Login

Don't have an account? Register now (free) for customized features, flight alerts, and more!